createdAt,value
2018-12-13T00:01:36.449Z,0.00
2018-12-13T00:02:36.537Z,0.00
2018-12-13T00:03:36.587Z,0.00
2018-12-13T00:04:36.702Z,0.00
2018-12-13T00:05:36.821Z,0.00
2018-12-13T00:06:36.984Z,0.00
2018-12-13T00:07:37.094Z,0.00
2018-12-13T00:08:37.213Z,0.00
2018-12-13T00:09:37.184Z,0.00
2018-12-13T00:10:37.650Z,0.00
2018-12-13T00:11:38.107Z,0.00
2018-12-13T00:12:38.390Z,0.00
2018-12-13T00:13:38.692Z,0.00
2018-12-13T00:14:38.944Z,0.00
2018-12-13T00:15:39.304Z,0.00
2018-12-13T00:16:39.575Z,0.00
2018-12-13T00:17:39.903Z,0.00
2018-12-13T00:18:40.162Z,0.00
2018-12-13T00:19:40.422Z,0.00
2018-12-13T00:20:40.756Z,0.00
2018-12-13T00:21:41.055Z,0.00
2018-12-13T00:22:41.344Z,0.00
2018-12-13T00:23:41.621Z,0.00
2018-12-13T00:24:41.840Z,0.00
2018-12-13T00:25:42.078Z,0.00
2018-12-13T00:26:42.313Z,0.00
2018-12-13T00:27:42.525Z,0.00
2018-12-13T00:28:42.761Z,0.00
2018-12-13T00:29:42.993Z,0.00
2018-12-13T00:30:43.413Z,0.00
2018-12-13T00:31:43.775Z,0.00
2018-12-13T00:32:44.018Z,0.00
2018-12-13T00:33:44.245Z,0.00
2018-12-13T00:34:44.651Z,0.00
2018-12-13T00:35:44.945Z,0.00
2018-12-13T00:36:45.180Z,0.00
2018-12-13T00:37:45.432Z,0.00
2018-12-13T00:38:45.659Z,0.00
2018-12-13T00:39:46.129Z,0.00
2018-12-13T00:40:46.366Z,0.00
2018-12-13T00:41:46.600Z,0.00
2018-12-13T00:42:46.857Z,0.00
2018-12-13T00:43:47.075Z,0.00
2018-12-13T00:44:47.280Z,0.00
2018-12-13T00:45:47.529Z,0.00
2018-12-13T00:46:47.752Z,0.00
2018-12-13T00:47:48.120Z,0.00
2018-12-13T00:48:48.701Z,0.00
2018-12-13T00:49:48.830Z,0.00
2018-12-13T00:51:48.912Z,0.00
2018-12-13T00:52:48.978Z,0.00
2018-12-13T00:53:49.072Z,0.00
2018-12-13T00:54:49.191Z,0.00
2018-12-13T00:55:49.277Z,0.00
2018-12-13T00:56:49.461Z,0.00
2018-12-13T00:57:49.541Z,0.00
2018-12-13T00:58:49.615Z,0.00
2018-12-13T00:59:49.704Z,0.00
2018-12-13T01:00:49.783Z,0.00
2018-12-13T01:01:49.899Z,0.00
2018-12-13T01:02:50.159Z,0.00
2018-12-13T01:04:50.420Z,0.00
2018-12-13T01:05:50.588Z,0.00
2018-12-13T01:06:50.672Z,0.00
2018-12-13T01:07:50.742Z,0.00
2018-12-13T01:08:50.796Z,0.00
2018-12-13T01:09:50.841Z,0.00
2018-12-13T01:10:50.866Z,0.00
2018-12-13T01:11:50.982Z,0.00
2018-12-13T01:12:51.053Z,0.00
2018-12-13T01:13:51.054Z,0.00
2018-12-13T01:14:51.120Z,0.00
2018-12-13T01:15:51.157Z,0.00
2018-12-13T01:16:51.177Z,0.00
2018-12-13T01:17:51.174Z,0.00
2018-12-13T01:19:51.256Z,0.00
2018-12-13T01:20:51.262Z,0.00
2018-12-13T01:21:51.301Z,0.00
2018-12-13T01:22:51.331Z,0.00
2018-12-13T01:23:51.386Z,0.00
2018-12-13T01:24:51.398Z,0.00
2018-12-13T01:25:51.993Z,0.00
2018-12-13T01:26:52.079Z,0.00
2018-12-13T01:27:52.136Z,0.00
2018-12-13T01:28:52.225Z,0.00
2018-12-13T01:29:52.308Z,0.00
2018-12-13T01:30:52.332Z,0.00
2018-12-13T01:31:52.406Z,0.00
2018-12-13T01:32:52.472Z,0.00
2018-12-13T01:33:52.549Z,0.00
2018-12-13T01:34:52.676Z,0.00
2018-12-13T01:35:52.745Z,0.00
2018-12-13T01:36:52.773Z,0.00
2018-12-13T01:37:52.838Z,0.00
2018-12-13T01:38:52.880Z,0.00
2018-12-13T01:39:52.914Z,0.00
2018-12-13T01:40:52.925Z,0.00
2018-12-13T01:41:52.966Z,0.00
2018-12-13T01:42:53.007Z,0.00
2018-12-13T01:43:53.052Z,0.00
2018-12-13T01:44:53.124Z,0.00
2018-12-13T01:45:53.163Z,0.00
2018-12-13T01:46:53.234Z,0.00
2018-12-13T01:47:53.283Z,0.00
2018-12-13T01:48:53.301Z,0.00
2018-12-13T01:49:53.381Z,0.00
2018-12-13T01:50:53.399Z,0.00
2018-12-13T01:51:53.454Z,0.00
2018-12-13T01:52:53.525Z,0.00
2018-12-13T01:53:53.547Z,0.00
2018-12-13T01:54:53.584Z,0.00
2018-12-13T01:55:53.623Z,0.00
2018-12-13T01:57:53.680Z,0.00
2018-12-13T01:58:53.692Z,0.00
2018-12-13T01:59:53.724Z,0.00
2018-12-13T02:00:53.765Z,0.00
2018-12-13T02:01:53.692Z,0.00
2018-12-13T02:02:54.014Z,0.00
2018-12-13T02:03:54.232Z,0.00
2018-12-13T02:04:54.490Z,0.00
2018-12-13T02:05:54.745Z,0.00
2018-12-13T02:06:58.656Z,0.00
2018-12-13T02:07:55.215Z,0.00
2018-12-13T02:08:55.432Z,0.00
2018-12-13T02:09:55.668Z,0.00
2018-12-13T02:10:55.870Z,0.00
2018-12-13T02:11:56.286Z,0.00
2018-12-13T02:12:56.490Z,0.00
2018-12-13T02:13:56.822Z,0.00
2018-12-13T02:14:57.070Z,0.00
2018-12-13T02:15:57.277Z,0.00
2018-12-13T02:16:57.496Z,0.00
2018-12-13T02:17:57.750Z,0.00
2018-12-13T02:18:58.169Z,0.00
2018-12-13T02:19:58.485Z,0.00
2018-12-13T02:20:58.738Z,0.00
2018-12-13T02:21:58.955Z,0.00
2018-12-13T02:22:59.413Z,0.00
2018-12-13T02:23:59.734Z,0.00
2018-12-13T02:24:59.995Z,0.00
2018-12-13T02:26:00.258Z,0.00
2018-12-13T02:27:00.477Z,0.00
2018-12-13T02:28:01.048Z,0.00
2018-12-13T02:29:00.841Z,0.00
2018-12-13T02:30:01.108Z,0.00
2018-12-13T02:31:01.426Z,0.00
2018-12-13T02:32:01.993Z,0.00
2018-12-13T02:33:02.021Z,0.00
2018-12-13T02:34:01.939Z,0.00
2018-12-13T02:35:02.524Z,0.00
2018-12-13T02:36:02.575Z,0.00
2018-12-13T02:37:05.895Z,0.00
2018-12-13T02:38:02.572Z,0.00
2018-12-13T02:39:03.118Z,0.00
2018-12-13T02:40:03.568Z,0.00
2018-12-13T02:41:03.563Z,0.00
2018-12-13T02:42:04.139Z,0.00
2018-12-13T02:43:04.181Z,0.00
2018-12-13T02:44:04.321Z,0.00
2018-12-13T02:45:04.371Z,0.00
2018-12-13T02:46:04.392Z,0.00
2018-12-13T02:47:04.540Z,0.00
2018-12-13T02:48:04.524Z,0.00
2018-12-13T02:49:04.552Z,0.00
2018-12-13T02:50:05.103Z,0.00
2018-12-13T02:51:05.195Z,0.00
2018-12-13T02:52:05.224Z,0.00
2018-12-13T02:53:05.225Z,0.00
2018-12-13T02:54:05.327Z,0.00
2018-12-13T02:55:05.440Z,0.00
2018-12-13T02:56:05.532Z,0.00
2018-12-13T02:57:05.618Z,0.00
2018-12-13T02:58:05.707Z,0.00
2018-12-13T02:59:05.777Z,0.00
2018-12-13T03:00:05.815Z,0.00
2018-12-13T03:01:05.900Z,0.00
2018-12-13T03:02:05.927Z,0.00
2018-12-13T03:03:06.016Z,0.00
2018-12-13T03:04:06.098Z,0.00
2018-12-13T03:05:06.169Z,0.00
2018-12-13T03:06:06.215Z,0.00
2018-12-13T03:07:13.293Z,0.00
2018-12-13T03:08:06.414Z,0.00
2018-12-13T03:09:06.511Z,0.00
2018-12-13T03:10:06.571Z,0.00
2018-12-13T03:11:06.606Z,0.00
2018-12-13T03:12:06.721Z,0.00
2018-12-13T03:13:06.830Z,0.00
2018-12-13T03:15:06.930Z,0.00
2018-12-13T03:16:06.971Z,0.00
2018-12-13T03:17:07.037Z,0.00
2018-12-13T03:18:07.077Z,0.00
2018-12-13T03:19:07.112Z,0.00
2018-12-13T03:20:07.172Z,0.00
2018-12-13T03:21:07.218Z,0.00
2018-12-13T03:22:07.263Z,0.00
2018-12-13T03:23:07.240Z,0.00
2018-12-13T03:24:07.754Z,0.00
2018-12-13T03:25:07.789Z,0.00
2018-12-13T03:26:07.803Z,0.00
2018-12-13T03:27:07.651Z,0.00
2018-12-13T03:28:08.175Z,0.00
2018-12-13T03:29:07.886Z,0.00
2018-12-13T03:30:08.429Z,0.00
2018-12-13T03:31:08.162Z,0.00
2018-12-13T03:32:08.735Z,0.00
2018-12-13T03:33:08.730Z,0.00
2018-12-13T03:34:08.647Z,0.00
2018-12-13T03:35:09.300Z,0.00
2018-12-13T03:36:09.400Z,0.00
2018-12-13T03:37:09.146Z,0.00
2018-12-13T03:38:09.458Z,0.00
2018-12-13T03:39:09.686Z,0.00
2018-12-13T03:40:09.950Z,0.00
2018-12-13T03:41:10.161Z,0.00
2018-12-13T03:42:10.381Z,0.00
2018-12-13T03:43:10.936Z,0.00
2018-12-13T03:44:10.687Z,0.00
2018-12-13T03:45:11.164Z,0.00
2018-12-13T03:46:11.382Z,0.00
2018-12-13T03:47:11.598Z,0.00
2018-12-13T03:48:11.843Z,0.00
2018-12-13T03:49:12.098Z,0.00
2018-12-13T03:50:12.340Z,0.00
2018-12-13T03:51:12.615Z,0.00
2018-12-13T03:52:13.018Z,0.00
2018-12-13T03:53:13.251Z,0.00
2018-12-13T03:54:13.597Z,0.00
2018-12-13T03:55:14.265Z,0.00
2018-12-13T03:56:13.884Z,0.00
2018-12-13T03:57:14.116Z,0.00
2018-12-13T03:58:14.331Z,0.00
2018-12-13T03:59:14.545Z,0.00
2018-12-13T04:00:14.822Z,0.00
2018-12-13T04:01:15.017Z,0.00
2018-12-13T04:02:15.263Z,0.00
2018-12-13T04:03:15.618Z,0.00
2018-12-13T04:04:15.809Z,0.00
2018-12-13T04:05:16.293Z,0.00
2018-12-13T04:06:16.522Z,0.00
2018-12-13T04:07:17.041Z,0.00
2018-12-13T04:08:16.746Z,0.00
2018-12-13T04:09:16.958Z,0.00
2018-12-13T04:10:17.353Z,0.00
2018-12-13T04:11:17.543Z,0.00
2018-12-13T04:12:17.486Z,0.00
2018-12-13T04:13:18.176Z,0.00
2018-12-13T04:14:18.348Z,0.00
2018-12-13T04:15:18.953Z,0.00
2018-12-13T04:16:19.101Z,0.00
2018-12-13T04:17:19.199Z,0.00
2018-12-13T04:18:19.313Z,0.00
2018-12-13T04:19:19.414Z,0.00
2018-12-13T04:20:19.505Z,0.00
2018-12-13T04:21:19.544Z,0.00
2018-12-13T04:22:19.638Z,0.00
2018-12-13T04:23:19.739Z,0.00
2018-12-13T04:24:19.857Z,0.00
2018-12-13T04:25:19.960Z,0.00
2018-12-13T04:26:20.082Z,0.00
2018-12-13T04:27:20.204Z,0.00
2018-12-13T04:28:20.299Z,0.00
2018-12-13T04:29:20.404Z,0.00
2018-12-13T04:30:20.513Z,0.00
2018-12-13T04:31:20.628Z,0.00
2018-12-13T04:32:20.736Z,0.00
2018-12-13T04:33:20.811Z,0.00
2018-12-13T04:34:20.826Z,0.00
2018-12-13T04:35:20.961Z,0.00
2018-12-13T04:36:21.001Z,0.00
2018-12-13T04:37:21.009Z,0.00
2018-12-13T04:38:21.080Z,0.00
2018-12-13T04:39:21.144Z,0.00
2018-12-13T04:40:21.194Z,0.00
2018-12-13T04:41:21.271Z,0.00
2018-12-13T04:42:21.327Z,0.00
2018-12-13T04:44:21.433Z,0.00
2018-12-13T04:45:21.483Z,0.00
2018-12-13T04:46:21.460Z,0.00
2018-12-13T04:47:21.450Z,0.00
2018-12-13T04:48:22.000Z,0.00
2018-12-13T04:49:22.163Z,0.00
2018-12-13T04:50:22.174Z,0.00
2018-12-13T04:51:22.258Z,0.00
2018-12-13T04:52:22.267Z,0.00
2018-12-13T04:53:22.319Z,0.00
2018-12-13T04:54:22.411Z,0.00
2018-12-13T04:55:22.443Z,0.00
2018-12-13T04:56:22.453Z,0.00
2018-12-13T04:57:22.480Z,0.00
2018-12-13T04:58:22.494Z,0.00
2018-12-13T04:59:22.508Z,0.00
2018-12-13T05:00:22.508Z,0.00
2018-12-13T05:01:22.531Z,0.00
2018-12-13T05:02:22.540Z,0.00
2018-12-13T05:03:22.549Z,0.00
2018-12-13T05:04:22.575Z,0.00
2018-12-13T05:05:22.586Z,0.00
2018-12-13T05:06:22.592Z,0.00
2018-12-13T05:07:23.091Z,0.00
2018-12-13T05:08:23.850Z,0.00
2018-12-13T05:10:24.300Z,0.00
2018-12-13T05:11:24.077Z,0.00
2018-12-13T05:12:24.363Z,0.00
2018-12-13T05:13:24.629Z,0.00
2018-12-13T05:14:24.864Z,0.00
2018-12-13T05:15:25.088Z,0.00
2018-12-13T05:16:25.530Z,0.00
2018-12-13T05:17:25.755Z,0.00
2018-12-13T05:18:25.990Z,0.00
2018-12-13T05:19:26.203Z,0.00
2018-12-13T05:20:26.419Z,0.00
2018-12-13T05:21:26.894Z,0.00
2018-12-13T05:22:27.086Z,0.00
2018-12-13T05:23:27.376Z,0.00
2018-12-13T05:24:27.587Z,0.00
2018-12-13T05:25:27.871Z,0.00
2018-12-13T05:26:28.141Z,0.00
2018-12-13T05:27:28.347Z,0.00
2018-12-13T05:28:28.565Z,0.00
2018-12-13T05:29:28.873Z,0.00
2018-12-13T05:30:29.144Z,0.00
2018-12-13T05:31:29.357Z,0.00
2018-12-13T05:32:29.587Z,0.00
2018-12-13T05:33:29.823Z,0.00
2018-12-13T05:34:30.034Z,0.00
2018-12-13T05:35:30.371Z,0.00
2018-12-13T05:36:30.599Z,0.00
2018-12-13T05:37:30.840Z,0.00
2018-12-13T05:39:31.285Z,0.00
2018-12-13T05:40:31.510Z,0.00
2018-12-13T05:41:31.781Z,0.00
2018-12-13T05:42:31.990Z,0.00
2018-12-13T05:43:32.497Z,0.00
2018-12-13T05:44:32.224Z,0.00
2018-12-13T05:45:32.459Z,0.00
2018-12-13T05:46:32.717Z,0.00
2018-12-13T05:47:33.191Z,0.00
2018-12-13T05:48:33.785Z,0.00
2018-12-13T05:49:33.854Z,0.00
2018-12-13T05:50:33.891Z,0.00
2018-12-13T05:51:33.897Z,0.00
2018-12-13T05:52:33.916Z,0.00
2018-12-13T05:53:33.995Z,0.00
2018-12-13T05:54:34.063Z,0.00
2018-12-13T05:55:34.150Z,0.00
2018-12-13T05:56:34.259Z,0.00
2018-12-13T05:57:34.301Z,0.00
2018-12-13T05:58:34.363Z,0.00
2018-12-13T05:59:34.437Z,0.00
2018-12-13T06:00:34.473Z,0.00
2018-12-13T06:01:34.545Z,0.00
2018-12-13T06:02:34.609Z,0.00
2018-12-13T06:03:34.716Z,0.00
2018-12-13T06:04:34.803Z,0.00
2018-12-13T06:05:34.896Z,0.00
2018-12-13T06:06:35.039Z,0.00
2018-12-13T06:07:35.107Z,0.00
2018-12-13T06:08:35.220Z,0.00
2018-12-13T06:09:35.332Z,0.00
2018-12-13T06:10:35.420Z,0.00
2018-12-13T06:11:35.531Z,0.00
2018-12-13T06:12:35.604Z,0.00
2018-12-13T06:13:35.656Z,0.00
2018-12-13T06:14:35.769Z,0.00
2018-12-13T06:15:35.874Z,0.00
2018-12-13T06:16:35.957Z,0.00
2018-12-13T06:17:35.981Z,0.00
2018-12-13T06:18:36.020Z,0.00
2018-12-13T06:19:36.055Z,0.00
2018-12-13T06:20:36.105Z,0.00
2018-12-13T06:21:37.067Z,0.00
2018-12-13T06:22:36.196Z,0.00
2018-12-13T06:23:36.219Z,0.00
2018-12-13T06:24:36.236Z,0.00
2018-12-13T06:25:36.266Z,0.00
2018-12-13T06:26:36.269Z,0.00
2018-12-13T06:27:36.332Z,0.00
2018-12-13T06:28:36.359Z,0.00
2018-12-13T06:29:41.764Z,0.00
2018-12-13T06:30:36.510Z,0.00
2018-12-13T06:31:36.563Z,1.00
2018-12-13T06:32:36.629Z,1.00
2018-12-13T06:33:36.713Z,0.00
2018-12-13T06:34:36.743Z,1.00
2018-12-13T06:35:36.826Z,2.00
2018-12-13T06:36:36.931Z,1.00
2018-12-13T06:37:36.998Z,2.00
2018-12-13T06:38:37.075Z,2.00
2018-12-13T06:39:37.138Z,2.00
2018-12-13T06:40:37.168Z,3.00
2018-12-13T06:41:37.196Z,3.00
2018-12-13T06:42:37.222Z,4.00
2018-12-13T06:43:37.254Z,5.00
2018-12-13T06:44:37.296Z,6.00
2018-12-13T06:45:37.350Z,7.00
2018-12-13T06:46:37.425Z,8.00
2018-12-13T06:47:37.492Z,10.00
2018-12-13T06:48:37.562Z,11.00
2018-12-13T06:49:37.652Z,13.00
2018-12-13T06:50:37.688Z,15.00
2018-12-13T06:51:37.740Z,18.00
2018-12-13T06:52:37.765Z,22.00
2018-12-13T06:53:37.780Z,25.00
2018-12-13T06:54:37.701Z,30.00
2018-12-13T06:55:38.230Z,34.00
2018-12-13T06:56:38.278Z,39.00
2018-12-13T06:57:38.334Z,46.00
2018-12-13T06:58:38.383Z,53.00
2018-12-13T06:59:38.429Z,61.00
2018-12-13T07:00:38.489Z,70.00
2018-12-13T07:01:38.528Z,80.00
2018-12-13T07:02:38.575Z,91.00
2018-12-13T07:03:38.784Z,102.00
2018-12-13T07:04:38.825Z,115.00
2018-12-13T07:05:38.950Z,128.00
2018-12-13T07:06:38.940Z,142.00
2018-12-13T07:07:39.285Z,158.00
2018-12-13T07:08:39.657Z,175.00
2018-12-13T07:09:39.889Z,192.00
2018-12-13T07:10:40.203Z,211.00
2018-12-13T07:11:40.418Z,231.00
2018-12-13T07:12:40.753Z,253.00
2018-12-13T07:13:41.025Z,275.00
2018-12-13T07:14:41.376Z,299.00
2018-12-13T07:15:41.600Z,324.00
2018-12-13T07:16:41.833Z,349.00
2018-12-13T07:17:42.060Z,376.00
2018-12-13T07:18:42.537Z,403.00
2018-12-13T07:19:42.773Z,429.00
2018-12-13T07:20:43.234Z,457.00
2018-12-13T07:21:43.483Z,487.00
2018-12-13T07:22:43.812Z,518.00
2018-12-13T07:23:44.069Z,549.00
2018-12-13T07:24:44.352Z,583.00
2018-12-13T07:25:44.581Z,616.00
2018-12-13T07:26:44.876Z,650.00
2018-12-13T07:27:45.097Z,686.00
2018-12-13T07:28:45.354Z,722.00
2018-12-13T07:29:45.602Z,758.00
2018-12-13T07:30:45.895Z,796.00
2018-12-13T07:31:46.148Z,835.00
2018-12-13T07:32:46.622Z,873.00
2018-12-13T07:33:46.971Z,915.00
2018-12-13T07:34:47.212Z,955.00
2018-12-13T07:35:47.546Z,996.00
2018-12-13T07:36:47.758Z,1038.00
2018-12-13T07:37:48.127Z,1081.00
2018-12-13T07:38:48.659Z,1125.00
2018-12-13T07:39:48.739Z,1170.00
2018-12-13T07:40:48.755Z,1211.00
2018-12-13T07:41:48.825Z,1254.00
2018-12-13T07:42:48.927Z,1295.00
2018-12-13T07:43:48.973Z,1338.00
2018-12-13T07:44:49.118Z,1382.00
2018-12-13T07:45:49.181Z,1430.00
2018-12-13T07:46:49.281Z,1472.00
2018-12-13T07:47:49.359Z,1515.00
2018-12-13T07:48:49.441Z,1556.00
2018-12-13T07:49:49.567Z,1597.00
2018-12-13T07:50:49.633Z,1641.00
2018-12-13T07:51:49.753Z,1689.00
2018-12-13T07:52:49.844Z,1736.00
2018-12-13T07:53:49.921Z,1786.00
2018-12-13T07:54:50.011Z,1834.00
2018-12-13T07:55:50.119Z,1882.00
2018-12-13T07:56:50.216Z,1928.00
2018-12-13T07:57:50.307Z,1976.00
2018-12-13T07:58:50.397Z,2019.00
2018-12-13T07:59:50.538Z,2064.00
2018-12-13T08:00:50.616Z,2108.00
2018-12-13T08:02:50.750Z,2188.00
2018-12-13T08:03:50.831Z,2235.00
2018-12-13T08:04:50.954Z,2284.00
2018-12-13T08:05:50.987Z,2334.00
2018-12-13T08:06:51.058Z,2384.00
2018-12-13T08:07:51.107Z,2432.00
2018-12-13T08:08:51.141Z,2482.00
2018-12-13T08:09:51.156Z,2533.00
2018-12-13T08:10:51.182Z,2575.00
2018-12-13T08:11:51.243Z,2614.00
2018-12-13T08:12:51.247Z,2655.00
2018-12-13T08:13:51.836Z,2695.00
2018-12-13T08:14:51.847Z,2733.00
2018-12-13T08:15:51.926Z,2769.00
2018-12-13T08:16:52.026Z,2808.00
2018-12-13T08:17:52.127Z,2849.00
2018-12-13T08:18:52.177Z,2891.00
2018-12-13T08:19:52.241Z,2946.00
2018-12-13T08:20:52.336Z,2997.00
2018-12-13T08:21:52.430Z,3045.00
2018-12-13T08:22:52.468Z,3095.00
2018-12-13T08:23:52.461Z,3151.00
2018-12-13T08:24:52.502Z,3201.00
2018-12-13T08:25:52.518Z,3258.00
2018-12-13T08:26:52.534Z,3309.00
2018-12-13T08:27:52.583Z,3354.00
2018-12-13T08:28:52.603Z,3406.00
2018-12-13T08:29:52.628Z,3437.00
2018-12-13T08:30:52.670Z,3490.00
2018-12-13T08:31:52.671Z,3546.00
2018-12-13T08:32:52.757Z,3597.00
2018-12-13T08:33:52.762Z,3653.00
2018-12-13T08:34:52.795Z,3701.00
2018-12-13T08:35:52.814Z,3752.00
2018-12-13T08:36:52.823Z,3808.00
2018-12-13T08:37:52.849Z,3858.00
2018-12-13T08:38:52.874Z,3901.00
2018-12-13T08:39:52.924Z,3938.00
2018-12-13T08:40:52.947Z,3966.00
2018-12-13T08:41:52.982Z,4005.00
2018-12-13T08:42:53.013Z,4030.00
2018-12-13T08:43:53.047Z,4073.00
2018-12-13T08:44:53.067Z,4103.00
2018-12-13T08:45:53.176Z,4132.00
2018-12-13T08:46:53.228Z,4178.00
2018-12-13T08:47:53.272Z,4224.00
2018-12-13T08:48:53.395Z,4284.00
2018-12-13T08:49:53.806Z,4336.00
2018-12-13T08:50:54.350Z,4410.00
2018-12-13T08:51:53.889Z,5134.00
2018-12-13T08:52:53.800Z,6623.00
2018-12-13T08:53:54.371Z,8223.00
2018-12-13T08:54:54.307Z,9318.00
2018-12-13T08:55:54.544Z,8593.00
2018-12-13T08:57:54.801Z,9136.00
2018-12-13T08:58:55.296Z,8868.00
2018-12-13T08:59:55.655Z,65536.00
2018-12-13T09:00:55.912Z,65536.00
2018-12-13T09:01:56.128Z,65536.00
2018-12-13T09:02:56.346Z,65536.00
2018-12-13T09:03:56.751Z,65536.00
2018-12-13T09:04:57.160Z,65536.00
2018-12-13T09:05:57.384Z,8980.00
2018-12-13T09:06:57.808Z,8118.00
2018-12-13T09:07:58.020Z,8395.00
2018-12-13T09:08:58.259Z,8233.00
2018-12-13T09:09:58.674Z,8190.00
2018-12-13T09:10:58.908Z,7505.00
2018-12-13T09:11:59.130Z,7242.00
2018-12-13T09:12:59.370Z,7485.00
2018-12-13T09:14:00.834Z,8368.00
2018-12-13T09:14:59.922Z,9729.00
2018-12-13T09:16:00.425Z,65536.00
2018-12-13T09:17:00.683Z,65536.00
2018-12-13T09:18:00.987Z,9359.00
2018-12-13T09:19:01.446Z,10095.00
2018-12-13T09:20:02.085Z,8381.00
2018-12-13T09:21:01.971Z,9098.00
2018-12-13T09:22:02.549Z,9291.00
2018-12-13T09:23:02.599Z,9993.00
2018-12-13T09:24:02.277Z,65536.00
2018-12-13T09:25:02.869Z,65536.00
2018-12-13T09:26:03.024Z,65536.00
2018-12-13T09:27:03.121Z,65536.00
2018-12-13T09:28:03.196Z,65536.00
2018-12-13T09:29:03.255Z,9464.00
2018-12-13T09:30:03.353Z,9502.00
2018-12-13T09:31:03.788Z,8366.00
2018-12-13T09:32:03.837Z,7269.00
2018-12-13T09:33:03.885Z,8924.00
2018-12-13T09:34:03.992Z,8704.00
2018-12-13T09:35:04.054Z,8491.00
2018-12-13T09:36:04.072Z,8493.00
2018-12-13T09:37:04.151Z,9789.00
2018-12-13T09:38:04.230Z,65536.00
2018-12-13T09:39:04.239Z,8578.00
2018-12-13T09:40:04.299Z,6868.00
2018-12-13T09:41:04.318Z,6780.00
2018-12-13T09:42:04.321Z,6217.00
2018-12-13T09:43:04.417Z,5834.00
2018-12-13T09:44:04.482Z,6233.00
2018-12-13T09:45:04.582Z,6644.00
2018-12-13T09:46:04.857Z,7690.00
2018-12-13T09:47:04.930Z,8431.00
2018-12-13T09:48:04.984Z,8214.00
2018-12-13T09:49:05.081Z,7316.00
2018-12-13T09:50:05.193Z,7389.00
2018-12-13T09:51:05.230Z,6666.00
2018-12-13T09:52:05.353Z,6270.00
2018-12-13T09:53:05.429Z,6317.00
2018-12-13T09:54:05.524Z,7135.00
2018-12-13T09:55:05.912Z,8192.00
2018-12-13T09:56:05.749Z,7230.00
2018-12-13T09:57:05.861Z,7214.00
2018-12-13T09:58:05.965Z,7968.00
2018-12-13T09:59:06.069Z,8663.00
2018-12-13T10:00:06.100Z,9777.00
2018-12-13T10:01:06.427Z,9738.00
2018-12-13T10:02:06.547Z,8907.00
2018-12-13T10:03:06.614Z,8626.00
2018-12-13T10:04:06.665Z,8128.00
2018-12-13T10:05:06.756Z,7742.00
2018-12-13T10:06:06.860Z,7661.00
2018-12-13T10:07:06.933Z,7444.00
2018-12-13T10:08:06.984Z,7255.00
2018-12-13T10:09:07.101Z,7517.00
2018-12-13T10:10:07.171Z,7559.00
2018-12-13T10:11:07.188Z,7128.00
2018-12-13T10:12:07.286Z,7050.00
2018-12-13T10:13:07.333Z,8250.00
2018-12-13T10:14:07.377Z,8202.00
2018-12-13T10:15:07.414Z,8285.00
2018-12-13T10:16:07.489Z,7697.00
2018-12-13T10:17:07.527Z,7655.00
2018-12-13T10:18:07.572Z,8789.00
2018-12-13T10:19:07.384Z,9404.00
2018-12-13T10:20:07.928Z,8875.00
2018-12-13T10:21:07.989Z,8053.00
2018-12-13T10:22:11.688Z,8731.00
2018-12-13T10:23:08.289Z,7781.00
2018-12-13T10:24:08.354Z,6507.00
2018-12-13T10:25:08.395Z,7117.00
2018-12-13T10:26:08.506Z,7895.00
2018-12-13T10:27:08.531Z,65536.00
2018-12-13T10:28:08.641Z,9291.00
2018-12-13T10:30:08.707Z,8206.00
2018-12-13T10:31:08.772Z,8504.00
2018-12-13T10:32:08.836Z,7464.00
2018-12-13T10:33:08.590Z,6937.00
2018-12-13T10:34:08.860Z,6980.00
2018-12-13T10:35:11.526Z,6955.00
2018-12-13T10:36:09.365Z,6698.00
2018-12-13T10:37:09.599Z,6615.00
2018-12-13T10:38:09.847Z,6665.00
2018-12-13T10:39:10.124Z,6652.00
2018-12-13T10:40:10.348Z,7321.00
2018-12-13T10:41:10.597Z,7787.00
2018-12-13T10:42:10.997Z,7836.00
2018-12-13T10:43:11.230Z,8190.00
2018-12-13T10:44:11.444Z,7872.00
2018-12-13T10:45:11.830Z,7665.00
2018-12-13T10:46:12.113Z,7317.00
2018-12-13T10:47:12.337Z,6833.00
2018-12-13T10:48:12.631Z,6949.00
2018-12-13T10:49:12.847Z,6643.00
2018-12-13T10:50:13.059Z,6495.00
2018-12-13T10:51:13.372Z,6573.00
2018-12-13T10:52:13.584Z,6774.00
2018-12-13T10:53:13.809Z,7038.00
2018-12-13T10:54:14.012Z,7508.00
2018-12-13T10:55:14.573Z,7615.00
2018-12-13T10:56:14.335Z,8045.00
2018-12-13T10:57:14.539Z,7666.00
2018-12-13T10:58:14.782Z,7212.00
2018-12-13T10:59:15.005Z,7311.00
2018-12-13T11:00:15.512Z,7102.00
2018-12-13T11:01:15.421Z,7345.00
2018-12-13T11:02:15.806Z,7577.00
2018-12-13T11:04:16.550Z,7445.00
2018-12-13T11:05:16.889Z,6874.00
2018-12-13T11:06:17.119Z,7185.00
2018-12-13T11:07:17.313Z,6988.00
2018-12-13T11:08:17.572Z,7625.00
2018-12-13T11:09:18.036Z,7784.00
2018-12-13T11:10:18.653Z,7872.00
2018-12-13T11:11:18.781Z,8326.00
2018-12-13T11:12:18.796Z,8619.00
2018-12-13T11:13:18.877Z,8531.00
2018-12-13T11:15:18.989Z,7514.00
2018-12-13T11:16:19.103Z,7890.00
2018-12-13T11:17:19.212Z,7429.00
2018-12-13T11:18:19.323Z,7251.00
2018-12-13T11:19:19.427Z,65536.00
2018-12-13T11:20:19.600Z,8568.00
2018-12-13T11:21:19.685Z,8644.00
2018-12-13T11:22:19.779Z,7865.00
2018-12-13T11:23:19.866Z,7939.00
2018-12-13T11:24:20.008Z,7785.00
2018-12-13T11:25:20.100Z,7368.00
2018-12-13T11:26:20.307Z,7018.00
2018-12-13T11:27:20.420Z,7286.00
2018-12-13T11:28:20.823Z,6811.00
2018-12-13T11:29:21.208Z,6205.00
2018-12-13T11:30:21.882Z,5886.00
2018-12-13T11:31:21.996Z,6518.00
2018-12-13T11:32:22.075Z,7548.00
2018-12-13T11:33:22.297Z,8030.00
2018-12-13T11:34:22.395Z,7554.00
2018-12-13T11:35:22.506Z,6791.00
2018-12-13T11:36:22.551Z,6631.00
2018-12-13T11:37:22.624Z,6805.00
2018-12-13T11:38:22.697Z,6525.00
2018-12-13T11:39:22.734Z,6566.00
2018-12-13T11:40:22.747Z,7032.00
2018-12-13T11:41:22.837Z,6609.00
2018-12-13T11:42:22.871Z,6427.00
2018-12-13T11:43:22.902Z,6326.00
2018-12-13T11:44:22.983Z,6101.00
2018-12-13T11:45:22.997Z,6364.00
2018-12-13T11:46:23.083Z,6247.00
2018-12-13T11:48:23.171Z,7019.00
2018-12-13T11:49:23.223Z,7370.00
2018-12-13T11:50:23.291Z,7885.00
2018-12-13T11:51:23.331Z,7689.00
2018-12-13T11:52:23.440Z,7406.00
2018-12-13T11:53:23.550Z,7631.00
2018-12-13T11:54:23.646Z,8792.00
2018-12-13T11:55:23.863Z,8126.00
2018-12-13T11:56:24.077Z,6601.00
2018-12-13T11:57:24.049Z,7588.00
2018-12-13T11:58:24.486Z,8246.00
2018-12-13T11:59:24.734Z,8165.00
2018-12-13T12:00:24.962Z,7995.00
2018-12-13T12:01:25.447Z,6695.00
2018-12-13T12:02:25.714Z,7146.00
2018-12-13T12:03:26.166Z,6496.00
2018-12-13T12:04:26.406Z,5876.00
2018-12-13T12:05:26.621Z,5727.00
2018-12-13T12:06:26.875Z,5119.00
2018-12-13T12:07:27.090Z,4386.00
2018-12-13T12:08:27.312Z,4446.00
2018-12-13T12:09:27.548Z,4747.00
2018-12-13T12:10:27.767Z,4944.00
2018-12-13T12:11:28.005Z,5142.00
2018-12-13T12:12:28.234Z,4667.00
2018-12-13T12:13:28.462Z,5058.00
2018-12-13T12:14:28.685Z,5529.00
2018-12-13T12:15:28.910Z,5555.00
2018-12-13T12:16:29.219Z,5728.00
2018-12-13T12:17:29.491Z,6320.00
2018-12-13T12:18:29.717Z,6108.00
2018-12-13T12:19:29.949Z,6472.00
2018-12-13T12:20:30.188Z,5911.00
2018-12-13T12:21:30.471Z,7235.00
2018-12-13T12:22:30.713Z,7155.00
2018-12-13T12:23:30.943Z,6195.00
2018-12-13T12:24:31.276Z,6500.00
2018-12-13T12:25:31.661Z,6352.00
2018-12-13T12:26:31.964Z,6016.00
2018-12-13T12:27:32.227Z,6656.00
2018-12-13T12:28:32.466Z,6241.00
2018-12-13T12:29:32.684Z,6066.00
2018-12-13T12:30:32.970Z,7521.00
2018-12-13T12:31:33.596Z,6235.00
2018-12-13T12:32:33.693Z,6723.00
2018-12-13T12:33:33.771Z,7499.00
2018-12-13T12:34:33.842Z,6503.00
2018-12-13T12:35:33.919Z,6720.00
2018-12-13T12:36:34.062Z,6923.00
2018-12-13T12:37:34.204Z,6920.00
2018-12-13T12:38:34.324Z,7195.00
2018-12-13T12:40:34.429Z,7644.00
2018-12-13T12:41:34.560Z,7707.00
2018-12-13T12:42:34.626Z,7728.00
2018-12-13T12:43:34.765Z,7602.00
2018-12-13T12:44:34.843Z,7745.00
2018-12-13T12:45:34.962Z,7515.00
2018-12-13T12:46:35.077Z,7360.00
2018-12-13T12:47:35.146Z,7304.00
2018-12-13T12:48:35.232Z,7261.00
2018-12-13T12:49:35.301Z,7225.00
2018-12-13T12:50:35.397Z,6779.00
2018-12-13T12:51:35.483Z,6544.00
2018-12-13T12:52:35.536Z,6544.00
2018-12-13T12:53:35.638Z,6253.00
2018-12-13T12:54:35.751Z,5654.00
2018-12-13T12:55:35.862Z,5616.00
2018-12-13T12:56:35.932Z,5775.00
2018-12-13T12:57:36.040Z,6139.00
2018-12-13T12:58:36.114Z,7124.00
2018-12-13T12:59:36.165Z,6940.00
2018-12-13T13:00:36.239Z,6746.00
2018-12-13T13:01:36.312Z,6518.00